To NAV CANADA Home Page Login to a new session Search on AWWS site Feedback and Comments Disclaimer Vers la page française équivalente Tips FAQ What's new on the site To the Forecasts and Observations / NOTAM section To "File a Flight Plan" website Publications and other links Update of the User's profile FIC Telephone Numbers My Weather Data Folder Route Weather Data Regional Weather Data Local Weather Data To the Forecasts and Observations / NOTAM section
Request Generated 03/28/2017 at 02:14:48 UTC . Weather information available at that time is displayed.

METAR/TAF

SWIFT CURRENT/SK    (show WxCam)

METAR CYYN 280200Z AUTO 12009KT 9SM OVC110 05/01 A2994 RMK SLP170=
METAR CYYN 280100Z AUTO 07011KT 9SM FEW095 OVC120 07/01 A2992 RMK
SLP160=
METAR CYYN 280000Z AUTO 07012KT 9SM BKN080 OVC091 10/00 A2990 RMK
SLP152 DENSITY ALT 2700FT=

TAF CYYN 272339Z 2800/2812 12008KT P6SM SCT100 BKN220 TEMPO 2800/2803
BKN100 OVC220
FM280300 12012KT P6SM SCT050 BKN090 TEMPO 2803/2812 P6SM -SHRA
BKN050 OVC090
RMK FCST BASED ON AUTO OBS. NXT FCST BY 280600Z=
Your time UTC time
Weather data provided by Environment Canada and NAV CANADA